Latest Weather Observations for The Monument

IDQ60801

Issued at 5:35 pm EST Thursday 31 July 2014 (issued every 30 minutes, with the page automatically refreshed every 10 minutes)

About weather observations | Map of weather stations | Latest weather observations for QLD | Other Formats
Station Details ID: 037034 Name: THE MONUMENT AIRPORT Lat: -21.81 Lon: 139.93 Height: 288.4 m
Data from the previous 72 hours. | See also: Recent months at The Monument
Date/Time
EST
Temp
°C
App
Temp
°C
Dew
Point
Rel
Hum
%
Delta-T
°C
Wind Press
QNH
hPa
Press
MSL
hPa
Rain
since 9 am
mm
Dir
 
Spd
km/h
Gust
km/h
Spd
kts
Gust
kts
31/05:30pm 27.6 24.1 -1.3 15 13.4 WNW 7 15 4 8 1015.7 - 0.0
31/05:00pm 27.5 23.5 0.3 17 13.0 NW 11 19 6 10 1015.7 1015.3 0.0
31/04:30pm 27.6 22.3 -0.5 16 13.3 W 17 26 9 14 1015.7 - 0.0
31/04:00pm 27.9 24.2 -0.2 16 13.3 WSW 9 19 5 10 1015.8 1015.4 0.0
31/03:30pm 27.8 23.7 -0.3 16 13.3 SW 11 22 6 12 1016.1 - 0.0
31/03:00pm 27.4 24.0 -0.6 16 13.1 SW 7 19 4 10 1016.2 1015.8 0.0
31/02:30pm 27.1 23.4 0.0 17 12.8 SSE 9 15 5 8 1016.6 - 0.0
31/02:00pm 27.1 23.8 0.0 17 12.8 SSW 7 15 4 8 1017.1 1016.7 0.0
31/01:30pm 26.9 22.8 -0.2 17 12.8 SSE 11 20 6 11 1017.6 - 0.0
31/01:00pm 26.4 22.7 0.2 18 12.4 S 9 17 5 9 1018.1 1017.7 0.0
31/12:30pm 26.1 21.0 -1.7 16 12.7 S 15 22 8 12 1018.7 - 0.0
31/12:00pm 25.3 20.0 -3.2 15 12.5 S 15 20 8 11 1019.2 1018.8 0.0
31/11:30am 25.1 19.8 -3.3 15 12.5 S 15 24 8 13 1019.6 - 0.0
31/11:00am 24.3 19.4 -3.1 16 12.0 SE 13 19 7 10 1019.9 1019.6 0.0
31/10:30am 23.1 18.1 -4.1 16 11.6 ESE 13 17 7 9 1020.2 - 0.0
31/10:00am 21.6 17.4 -3.7 18 10.7 S 9 15 5 8 1020.4 1020.0 0.0
31/09:30am 19.4 15.7 -4.1 20 9.7 SSW 6 9 3 5 1020.1 - 0.0
31/09:00am 16.7 14.1 -5.1 22 8.5 CALM 0 6 0 3 1020.1 1019.8 0.0
31/08:30am 14.7 12.1 -5.1 25 7.6 CALM 0 0 0 0 1019.8 - 0.0
31/08:00am 11.3 8.3 -4.8 32 6.0 WNW 2 7 1 4 1019.6 1019.3 0.0
31/07:30am 9.6 7.1 -4.4 37 5.1 CALM 0 2 0 1 1019.4 - 0.0
31/07:00am 8.8 5.1 -4.7 38 4.9 WSW 6 7 3 4 1019.1 1018.7 0.0
31/06:30am 9.6 7.1 -4.4 37 5.1 CALM 0 0 0 0 1018.8 - 0.0
31/06:00am 8.6 6.0 -4.9 38 4.8 W 0 0 0 0 1018.6 1018.2 0.0
31/05:30am 9.0 5.2 -5.2 36 5.1 WNW 6 7 3 4 1018.4 - 0.0
31/05:00am 9.4 6.8 -4.5 37 5.1 CALM 0 0 0 0 1018.3 1017.9 0.0
31/04:30am 9.7 7.1 -4.6 36 5.2 CALM 0 0 0 0 1018.3 - 0.0
31/04:00am 10.5 7.9 -5.1 33 5.7 CALM 0 0 0 0 1018.3 1017.9 0.0
31/03:30am 11.5 9.1 -3.4 35 5.7 CALM 0 0 0 0 1018.4 - 0.0
31/03:00am 10.5 7.9 -4.7 34 5.6 CALM 0 0 0 0 1018.5 1018.1 0.0
31/02:30am 12.7 10.2 -4.0 31 6.4 CALM 0 0 0 0 1018.7 - 0.0
31/02:00am 13.1 9.9 -3.6 31 6.5 S 4 6 2 3 1018.8 1018.4 0.0
31/01:30am 13.6 9.9 -4.5 28 6.9 SE 6 9 3 5 1018.8 - 0.0
31/01:00am 15.7 10.8 -3.7 26 7.7 SSE 13 15 7 8 1018.7 1018.3 0.0
31/12:30am 13.2 9.5 -4.9 28 6.8 S 6 7 3 4 1018.7 - 0.0
31/12:00am 16.0 11.8 -4.0 25 7.9 S 9 11 5 6 1018.8 1018.4 0.0
 
Date/Time
EST
Temp
°C
App
Temp
°C
Dew
Point
Rel
Hum
%
Delta-T
°C
Wind Press
QNH
hPa
Press
MSL
hPa
Rain
since 9 am
mm
Dir
 
Spd
km/h
Gust
km/h
Spd
kts
Gust
kts
30/11:30pm 16.7 12.6 -3.4 25 8.2 S 9 11 5 6 1018.9 - 0.0
30/11:00pm 17.2 13.1 -3.0 25 8.3 S 9 13 5 7 1019.1 1018.7 0.0
30/10:30pm 17.9 13.9 -2.4 25 8.5 S 9 13 5 7 1019.2 - 0.0
30/10:00pm 18.5 13.9 -1.3 26 8.5 SSE 13 15 7 8 1019.3 1019.0 0.0
30/09:30pm 17.7 13.8 -1.5 27 8.2 SSE 9 11 5 6 1019.2 - 0.0
30/09:00pm 18.9 14.7 -1.0 26 8.6 S 11 13 6 7 1019.2 1018.8 0.0
30/08:30pm 19.2 14.9 -1.3 25 8.9 SSE 11 13 6 7 1018.9 - 0.0
30/08:00pm 20.2 16.3 -1.6 23 9.5 SSE 9 11 5 6 1018.6 1018.2 0.0
30/07:30pm 22.0 17.8 -0.7 22 10.2 S 11 13 6 7 1018.4 - 0.0
30/07:00pm 22.8 18.6 -0.6 21 10.6 S 11 13 6 7 1018.0 1017.6 0.0
30/06:30pm 23.8 19.7 -0.5 20 11.1 SSE 11 13 6 7 1017.8 - 0.0
30/06:00pm 25.7 21.9 -0.4 18 12.1 SSE 9 15 5 8 1017.7 1017.3 0.0
30/05:30pm 26.9 22.8 -0.2 17 12.8 SE 11 17 6 9 1017.8 - 0.0
30/05:00pm 27.3 23.2 0.1 17 12.9 SE 11 20 6 11 1017.8 1017.4 0.0
30/04:30pm 27.5 22.7 0.3 17 13.0 SE 15 22 8 12 1017.7 - 0.0
30/04:00pm 27.5 22.5 1.1 18 12.8 SE 17 28 9 15 1017.7 1017.3 0.0
30/03:30pm 27.6 23.8 1.9 19 12.6 SE 11 17 6 9 1017.7 - 0.0
30/03:00pm 27.3 22.6 0.9 18 12.7 ESE 15 24 8 13 1017.8 1017.4 0.0
30/02:30pm 27.5 23.1 2.6 20 12.4 SE 15 22 8 12 1018.0 - 0.0
30/02:00pm 27.5 23.5 2.6 20 12.4 E 13 26 7 14 1018.4 1018.0 0.0
30/01:30pm 27.2 22.7 2.3 20 12.3 ESE 15 24 8 13 1018.9 - 0.0
30/01:00pm 26.9 21.9 1.3 19 12.4 ESE 17 28 9 15 1019.6 1019.3 0.0
30/12:30pm 26.2 20.5 0.8 19 12.1 E 20 28 11 15 1020.1 - 0.0
30/12:00pm 26.2 20.3 -0.8 17 12.5 E 20 32 11 17 1020.7 1020.3 0.0
30/11:30am 25.5 19.5 -1.3 17 12.3 E 20 30 11 16 1021.4 - 0.0
30/11:00am 24.3 18.1 -3.1 16 12.0 ESE 20 30 11 16 1021.9 1021.5 0.0
30/10:30am 22.5 16.4 -3.7 17 11.2 ESE 19 26 10 14 1022.4 - 0.0
30/10:00am 21.0 14.7 -4.2 18 10.4 E 20 30 11 16 1022.6 1022.3 0.0
30/09:30am 19.5 13.1 -4.7 19 9.8 ESE 20 28 11 15 1022.5 - 0.0
30/09:00am 16.8 11.7 -5.6 21 8.6 SE 13 19 7 10 1022.4 1022.1 0.0
30/08:30am 13.7 9.6 -6.5 24 7.4 S 7 11 4 6 1022.2 - 0.0
30/08:00am 11.1 8.5 -4.9 32 5.9 CALM 0 0 0 0 1022.0 1021.6 0.0
30/07:30am 9.6 5.6 -5.5 34 5.4 S 7 9 4 5 1022.1 - 0.0
30/07:00am 8.8 4.3 -6.6 33 5.3 S 9 11 5 6 1021.9 1021.5 0.0
30/06:30am 9.2 5.2 -5.4 35 5.2 SSW 7 7 4 4 1021.7 - 0.0
30/06:00am 10.3 6.3 -6.1 31 5.8 SW 7 9 4 5 1021.5 1021.1 0.0
30/05:30am 11.3 6.9 -5.6 30 6.2 SSW 9 9 5 5 1021.3 - 0.0
30/05:00am 11.3 7.0 -5.2 31 6.0 SSW 9 11 5 6 1021.2 1020.8 0.0
30/04:30am 12.1 7.8 -4.9 30 6.4 S 9 9 5 5 1021.0 - 0.0
30/04:00am 12.5 8.6 -4.6 30 6.4 S 7 9 4 5 1021.0 1020.6 0.0
30/03:30am 12.9 8.7 -4.2 30 6.5 SSW 9 11 5 6 1020.8 - 0.0
30/03:00am 13.3 9.1 -4.3 29 6.7 S 9 9 5 5 1020.8 1020.4 0.0
30/02:30am 14.7 10.5 -4.1 27 7.4 SSE 9 11 5 6 1020.8 - 0.0
30/02:00am 15.3 10.8 -3.6 27 7.5 SSE 11 13 6 7 1020.9 1020.5 0.0
30/01:30am 15.2 11.1 -3.2 28 7.4 S 9 13 5 7 1020.8 - 0.0
30/01:00am 15.9 11.8 -3.1 27 7.7 S 9 13 5 7 1020.8 1020.4 0.0
30/12:30am 16.6 12.2 -2.5 27 7.9 S 11 13 6 7 1020.8 - 0.0
30/12:00am 17.3 12.9 -2.4 26 8.2 S 11 15 6 8 1020.8 1020.4 0.0
 
Date/Time
EST
Temp
°C
App
Temp
°C
Dew
Point
Rel
Hum
%
Delta-T
°C
Wind Press
QNH
hPa
Press
MSL
hPa
Rain
since 9 am
mm
Dir
 
Spd
km/h
Gust
km/h
Spd
kts
Gust
kts
29/11:30pm 18.1 13.4 -1.7 26 8.4 S 13 15 7 8 1020.8 - 0.0
29/11:00pm 18.9 14.3 -1.0 26 8.6 S 13 17 7 9 1020.9 1020.5 0.0
29/10:30pm 19.3 14.8 -0.1 27 8.6 S 13 17 7 9 1021.0 - 0.0
29/10:00pm 19.1 15.1 0.2 28 8.4 S 11 15 6 8 1020.7 1020.3 0.0
29/09:30pm 19.5 15.5 0.5 28 8.6 S 11 13 6 7 1020.6 - 0.0
29/09:00pm 20.3 16.3 0.7 27 8.9 S 11 15 6 8 1020.4 1020.0 0.0
29/08:30pm 20.7 16.8 1.1 27 9.0 S 11 13 6 7 1020.1 - 0.0
29/08:00pm 21.8 17.6 1.5 26 9.5 S 13 15 7 8 1019.9 1019.6 0.0
29/07:30pm 22.6 18.8 1.6 25 9.9 S 11 11 6 6 1019.6 - 0.0
29/07:00pm 23.5 19.7 1.8 24 10.3 SSE 11 13 6 7 1019.1 1018.7 0.0
29/06:30pm 24.4 20.6 1.9 23 10.8 SSE 11 11 6 6 1018.8 - 0.0
29/06:00pm 26.4 22.3 2.3 21 11.8 SE 13 19 7 10 1018.5 1018.1 0.0
29/05:30pm 27.4 23.3 2.5 20 12.4 SSE 13 17 7 9 1018.2 - 0.0
29/05:00pm 28.0 24.0 3.0 20 12.6 S 13 19 7 10 1018.0 1017.6 0.0
29/04:30pm 28.2 24.5 2.4 19 12.9 S 11 15 6 8 1017.9 - 0.0
29/04:00pm 28.2 24.5 2.4 19 12.8 SSE 11 24 6 13 1017.8 1017.4 0.0
29/03:30pm 28.4 25.7 2.6 19 12.9 SSE 6 15 3 8 1017.9 - 0.0
29/03:00pm 28.4 25.2 3.3 20 12.7 SSW 9 20 5 11 1017.9 1017.5 0.0
29/02:30pm 28.5 25.9 4.1 21 12.6 NNW 7 11 4 6 1018.4 - 0.0
29/02:00pm 27.5 23.9 3.2 21 12.2 WNW 11 19 6 10 1018.8 1018.4 0.0
29/01:30pm 27.2 23.6 3.0 21 12.1 SE 11 19 6 10 1019.4 - 0.0
29/01:00pm 27.4 23.8 3.2 21 12.1 E 11 19 6 10 1020.0 1019.7 0.0
29/12:30pm 26.6 22.5 2.5 21 11.9 E 13 20 7 11 1020.7 - 0.0
29/12:00pm 25.4 21.3 2.2 22 11.3 ESE 13 20 7 11 1021.2 1020.8 0.0
29/11:30am 24.7 20.5 1.6 22 11.1 ESE 13 20 7 11 1021.5 - 0.0
29/11:00am 23.5 19.2 1.2 23 10.5 ESE 13 20 7 11 1021.7 1021.3 0.0
29/10:30am 22.2 18.3 1.3 25 9.8 ESE 11 13 6 7 1022.0 - 0.0
29/10:00am 20.8 16.8 0.6 26 9.2 SE 11 15 6 8 1022.1 1021.7 0.0
29/09:30am 18.7 15.4 -0.2 28 8.4 S 7 11 4 6 1021.9 - 0.0
29/09:00am 16.9 14.8 -0.8 30 7.6 CALM 0 4 0 2 1021.9 1021.5 0.0
29/08:30am 14.8 12.3 -1.3 33 6.7 SSW 2 7 1 4 1021.7 - 0.0
29/08:00am 11.7 9.6 -1.1 41 5.2 CALM 0 0 0 0 1021.4 1021.0 0.0
29/07:30am 10.2 8.1 -0.6 47 4.4 CALM 0 0 0 0 1021.3 - 0.0
29/07:00am 9.1 7.0 -1.0 49 4.0 CALM 0 0 0 0 1020.9 1020.5 0.0
29/06:30am 9.1 6.9 -1.3 48 4.1 CALM 0 0 0 0 1020.8 - 0.0
29/06:00am 9.9 7.8 -0.6 48 4.2 CALM 0 0 0 0 1020.7 1020.3 0.0
29/05:30am 9.2 7.0 -1.8 46 4.3 CALM 0 0 0 0 1020.6 - 0.0
29/05:00am 10.7 8.6 -0.7 45 4.6 CALM 0 0 0 0 1020.4 1020.0 0.0
29/04:30am 10.8 8.6 -1.3 43 4.8 CALM 0 0 0 0 1020.4 - 0.0
29/04:00am 11.2 9.1 -0.9 43 4.9 CALM 0 0 0 0 1020.5 1020.1 0.0
29/03:30am 10.6 8.0 -1.4 43 4.8 NNW 2 7 1 4 1020.4 - 0.0
29/03:00am 11.7 8.5 -0.8 42 5.1 NW 6 7 3 4 1020.2 1019.9 0.0
29/02:30am 13.8 10.6 0.8 41 5.6 W 7 9 4 5 1020.2 - 0.0
29/02:00am 12.7 10.8 0.8 44 5.1 CALM 0 0 0 0 1020.1 1019.8 0.0
29/01:30am 13.5 10.0 -1.6 35 6.2 WSW 7 11 4 6 1020.5 - 0.0
29/01:00am 14.6 10.9 -0.3 36 6.3 WSW 9 11 5 6 1020.5 1020.1 0.0
29/12:30am 15.2 11.5 0.2 36 6.5 W 9 9 5 5 1020.4 - 0.0
29/12:00am 15.0 11.7 0.4 37 6.3 W 7 17 4 9 1020.5 1020.1 0.0
 
Date/Time
EST
Temp
°C
App
Temp
°C
Dew
Point
Rel
Hum
%
Delta-T
°C
Wind Press
QNH
hPa
Press
MSL
hPa
Rain
since 9 am
mm
Dir
 
Spd
km/h
Gust
km/h
Spd
kts
Gust
kts
28/11:30pm 14.6 11.3 0.1 37 6.2 ESE 7 11 4 6 1020.6 - 0.0
28/11:00pm 15.9 14.0 0.5 35 6.7 CALM 0 0 0 0 1020.5 1020.1 0.0
28/10:30pm 15.5 13.4 -1.1 32 7.0 CALM 0 0 0 0 1020.7 - 0.0
28/10:00pm 18.0 15.0 0.6 31 7.7 SSW 6 7 3 4 1020.5 1020.1 0.0
28/09:30pm 19.6 15.3 1.1 29 8.5 SW 13 15 7 8 1020.6 - 0.0
28/09:00pm 19.9 16.4 1.4 29 8.5 SSW 9 11 5 6 1020.6 1020.2 0.0
28/08:30pm 19.8 16.7 1.3 29 8.5 S 7 9 4 5 1020.2 - 0.0
28/08:00pm 20.2 16.6 0.6 27 8.9 S 9 11 5 6 1020.0 1019.7 0.0
28/07:30pm 21.8 18.4 2.0 27 9.4 SSW 9 11 5 6 1019.6 - 0.0
28/07:00pm 22.8 19.4 1.8 25 9.9 SSW 9 11 5 6 1019.2 1018.8 0.0
28/06:30pm 24.4 21.5 2.5 24 10.7 S 7 9 4 5 1018.9 - 0.0
28/06:00pm 26.7 24.1 3.2 22 11.7 SW 6 7 3 4 1018.7 1018.3 0.0

Other Formats:

Comma delimited format used in spreadsheet applications
http://www.bom.gov.au/fwo/IDQ60801/IDQ60801.94336.axf

JavaScript Object Notation format (JSON) in row-major order
http://www.bom.gov.au/fwo/IDQ60801/IDQ60801.94336.json